Time;durP1;ratioP1;P1;durP2;ratioP2;P2;SDS_P1;SDS_P2;PMS_P1;PMS_P2;Temp;Humidity;BMP_temperature;BMP_pressure;BME280_temperature;BME280_humidity;BME280_pressure;Samples;Min_cycle;Max_cycle;Signal;HPM_P1;HPM_P2
2024/03/11 00:01:39;;;;;;;23.70;13.80;;;5.40;99.90;;;;;;4963347;28;20037;-52
2024/03/11 00:04:06;;;;;;;22.92;14.77;;;5.40;99.90;;;;;;4982689;28;20034;-51
2024/03/11 00:06:32;;;;;;;22.45;13.88;;;5.40;99.90;;;;;;4963278;28;20042;-52
2024/03/11 00:08:58;;;;;;;27.83;14.63;;;5.40;99.90;;;;;;4984612;28;20144;-50
2024/03/11 00:11:24;;;;;;;22.90;14.13;;;5.40;99.90;;;;;;4970279;28;20113;-52
2024/03/11 00:13:50;;;;;;;23.10;14.18;;;5.40;99.90;;;;;;4960367;28;20037;-50
2024/03/11 00:16:16;;;;;;;23.02;13.40;;;5.30;99.90;;;;;;4961658;28;20034;-53
2024/03/11 00:18:42;;;;;;;24.25;14.43;;;5.30;99.90;;;;;;4978490;28;20619;-55
2024/03/11 00:21:08;;;;;;;24.35;14.52;;;5.30;99.90;;;;;;4966454;28;20045;-52
2024/03/11 00:23:33;;;;;;;23.38;12.82;;;5.30;99.90;;;;;;4966536;28;20054;-50
2024/03/11 00:25:59;;;;;;;21.85;13.63;;;5.20;99.90;;;;;;4956800;28;20041;-51
2024/03/11 00:28:25;;;;;;;24.20;14.25;;;5.20;99.90;;;;;;4950412;28;20101;-53
2024/03/11 00:30:51;;;;;;;26.27;13.05;;;5.30;99.90;;;;;;4987012;28;20057;-54
2024/03/11 00:33:17;;;;;;;22.95;13.93;;;5.30;99.90;;;;;;4973843;28;20080;-49
2024/03/11 00:35:45;;;;;;;24.45;15.02;;;5.30;99.90;;;;;;4954600;28;20030;-49
2024/03/11 00:38:10;;;;;;;23.00;14.10;;;5.30;99.90;;;;;;4959580;28;20083;-52
2024/03/11 00:40:37;;;;;;;27.33;14.38;;;5.30;99.90;;;;;;4945636;28;20037;-53
2024/03/11 00:43:03;;;;;;;23.02;13.35;;;5.30;99.90;;;;;;4980450;28;20053;-49
2024/03/11 00:45:28;;;;;;;20.77;13.68;;;5.30;99.90;;;;;;4941649;28;20049;-57
2024/03/11 00:47:55;;;;;;;20.05;12.85;;;5.30;99.90;;;;;;4963779;28;20026;-52
2024/03/11 00:50:21;;;;;;;22.70;13.32;;;5.30;99.90;;;;;;4958929;28;20030;-54
2024/03/11 00:52:48;;;;;;;24.13;13.00;;;5.30;99.90;;;;;;4959462;28;20137;-51
2024/03/11 00:55:13;;;;;;;27.88;13.93;;;5.30;99.90;;;;;;4944278;28;20108;-50
2024/03/11 00:57:41;;;;;;;20.38;13.65;;;5.30;99.90;;;;;;4975072;28;20132;-52
2024/03/11 01:00:11;;;;;;;24.08;12.90;;;5.40;99.90;;;;;;4967298;28;20541;-53
2024/03/11 01:02:41;;;;;;;25.73;13.20;;;5.30;99.90;;;;;;4957129;28;21688;-54
2024/03/11 01:05:08;;;;;;;19.70;12.32;;;5.30;99.90;;;;;;4967876;28;20039;-52
2024/03/11 01:07:35;;;;;;;21.88;12.18;;;5.40;99.90;;;;;;4946141;28;20034;-51
2024/03/11 01:10:02;;;;;;;22.35;12.20;;;5.30;99.90;;;;;;4984838;28;20037;-53
2024/03/11 01:12:28;;;;;;;27.48;13.40;;;5.30;99.90;;;;;;4942536;28;20041;-57
2024/03/11 01:14:55;;;;;;;22.70;12.48;;;5.30;99.90;;;;;;4955481;28;20486;-53
2024/03/11 01:17:20;;;;;;;23.35;13.40;;;5.30;99.90;;;;;;4952459;28;20058;-52
2024/03/11 01:19:47;;;;;;;25.38;13.63;;;5.30;99.90;;;;;;4942636;28;20121;-52
2024/03/11 01:22:13;;;;;;;22.58;13.98;;;5.20;99.90;;;;;;4933848;28;20025;-57
2024/03/11 01:24:39;;;;;;;19.67;11.55;;;5.20;99.90;;;;;;4963799;28;20585;-49
2024/03/11 01:27:10;;;;;;;19.55;11.88;;;5.20;99.90;;;;;;4969895;28;20018;-51
2024/03/11 01:29:38;;;;;;;22.48;12.43;;;5.30;99.90;;;;;;4950217;28;20135;-53
2024/03/11 01:32:06;;;;;;;22.95;14.65;;;5.20;99.90;;;;;;4929546;28;20034;-50
2024/03/11 01:34:33;;;;;;;17.55;11.98;;;5.30;99.90;;;;;;4937338;28;20040;-50
2024/03/11 01:37:00;;;;;;;21.23;13.05;;;5.30;99.90;;;;;;4977560;28;20030;-53
2024/03/11 01:39:42;;;;;;;21.15;12.00;;;5.20;99.90;;;;;;4956765;28;20121;-60
2024/03/11 01:42:14;;;;;;;23.42;13.35;;;5.30;99.90;;;;;;4946603;28;20112;-55
2024/03/11 01:44:44;;;;;;;21.27;11.77;;;5.30;99.90;;;;;;4943762;28;20022;-59
2024/03/11 01:47:14;;;;;;;25.55;12.63;;;5.30;99.90;;;;;;4937259;28;21175;-50
2024/03/11 01:49:42;;;;;;;28.60;13.43;;;5.30;99.90;;;;;;4938147;28;20021;-53
2024/03/11 01:52:14;;;;;;;20.23;12.23;;;5.30;99.90;;;;;;4959797;28;20061;-51
2024/03/11 01:54:40;;;;;;;26.48;13.18;;;5.30;99.90;;;;;;4978891;28;20565;-51
2024/03/11 01:57:07;;;;;;;24.75;13.45;;;5.30;99.90;;;;;;4953890;28;20058;-52
2024/03/11 01:59:35;;;;;;;24.30;12.80;;;5.30;99.90;;;;;;4950145;28;20048;-51
2024/03/11 02:02:03;;;;;;;21.08;12.73;;;5.20;99.90;;;;;;4923290;28;20556;-52
2024/03/11 02:04:30;;;;;;;25.95;13.48;;;5.30;99.90;;;;;;4936324;28;22267;-49
2024/03/11 02:06:55;;;;;;;22.40;12.32;;;5.30;99.90;;;;;;4953686;28;20027;-52
2024/03/11 02:09:21;;;;;;;21.27;12.30;;;5.30;99.90;;;;;;4976703;28;20022;-51
2024/03/11 02:11:47;;;;;;;25.17;13.48;;;5.30;99.90;;;;;;4927634;28;20498;-50
2024/03/11 02:14:13;;;;;;;20.08;12.80;;;5.30;99.90;;;;;;4931499;28;20029;-53
2024/03/11 02:16:39;;;;;;;25.25;11.77;;;5.30;99.90;;;;;;4910663;28;20030;-50
2024/03/11 02:19:07;;;;;;;17.60;12.20;;;5.30;99.90;;;;;;4979298;28;20030;-53
2024/03/11 02:21:32;;;;;;;20.90;12.15;;;5.30;99.90;;;;;;4906988;28;20034;-54
2024/03/11 02:23:58;;;;;;;24.50;13.45;;;5.30;99.90;;;;;;4950990;28;20048;-52
2024/03/11 02:26:24;;;;;;;16.58;11.25;;;5.30;99.90;;;;;;4940182;28;20034;-52
2024/03/11 02:28:49;;;;;;;23.02;12.77;;;5.30;99.90;;;;;;4915554;28;20018;-50
2024/03/11 02:31:15;;;;;;;20.98;12.32;;;5.30;99.90;;;;;;4948441;28;20490;-53
2024/03/11 02:33:41;;;;;;;21.95;12.02;;;5.30;99.90;;;;;;4937939;28;20018;-54
2024/03/11 02:36:06;;;;;;;20.00;11.75;;;5.30;99.90;;;;;;4944769;28;20508;-52
2024/03/11 02:38:32;;;;;;;16.50;11.55;;;5.30;99.90;;;;;;4931310;28;20706;-54
2024/03/11 02:40:58;;;;;;;17.92;12.13;;;5.30;99.90;;;;;;4898753;28;20030;-53
2024/03/11 02:43:26;;;;;;;22.52;12.60;;;5.30;99.90;;;;;;4917318;28;20026;-51
2024/03/11 02:45:52;;;;;;;18.92;12.48;;;5.30;99.90;;;;;;4972008;28;20026;-54
2024/03/11 02:48:17;;;;;;;21.75;11.38;;;5.30;99.90;;;;;;4936125;28;20048;-51
2024/03/11 02:50:44;;;;;;;24.75;12.80;;;5.20;99.90;;;;;;4905041;28;20104;-58
2024/03/11 02:53:09;;;;;;;19.77;11.18;;;5.20;99.90;;;;;;4921113;28;20014;-50
2024/03/11 02:55:38;;;;;;;22.27;12.80;;;5.30;99.90;;;;;;4901291;28;20041;-52
2024/03/11 02:58:05;;;;;;;21.38;11.95;;;5.20;99.90;;;;;;4959534;28;20061;-51
2024/03/11 03:00:33;;;;;;;22.30;12.48;;;5.20;99.90;;;;;;4924191;28;20536;-58
2024/03/11 03:02:59;;;;;;;24.05;11.85;;;5.20;99.90;;;;;;4937375;28;20038;-54
2024/03/11 03:05:26;;;;;;;19.58;13.00;;;5.20;99.90;;;;;;4930529;28;20034;-54
2024/03/11 03:07:51;;;;;;;24.35;12.35;;;5.20;99.90;;;;;;4886486;28;20034;-52
2024/03/11 03:10:17;;;;;;;24.48;12.50;;;5.20;99.90;;;;;;4903337;28;20037;-59
2024/03/11 03:12:43;;;;;;;21.23;12.80;;;5.20;99.90;;;;;;4967931;28;20095;-51
2024/03/11 03:15:10;;;;;;;21.40;12.85;;;5.20;99.90;;;;;;4922674;28;20061;-51
2024/03/11 03:17:38;;;;;;;20.48;12.18;;;5.20;99.90;;;;;;4925039;28;20026;-52
2024/03/11 03:20:05;;;;;;;20.10;12.15;;;5.30;99.90;;;;;;4923087;28;20088;-51
2024/03/11 03:22:31;;;;;;;27.88;13.60;;;5.20;99.90;;;;;;4916460;28;21361;-50
2024/03/11 03:24:56;;;;;;;20.60;12.80;;;5.20;99.90;;;;;;4964428;28;20041;-51
2024/03/11 03:27:22;;;;;;;22.77;13.68;;;5.20;99.90;;;;;;4948266;28;20034;-52
2024/03/11 03:29:48;;;;;;;21.73;11.77;;;5.20;99.90;;;;;;4905557;28;20085;-52
2024/03/11 03:32:19;;;;;;;17.42;11.63;;;5.30;99.90;;;;;;4920984;28;20061;-51
2024/03/11 03:34:44;;;;;;;24.58;12.13;;;5.20;99.90;;;;;;4901882;28;20029;-50
2024/03/11 03:37:13;;;;;;;22.55;12.82;;;5.20;99.90;;;;;;4936740;28;20029;-58
2024/03/11 03:39:41;;;;;;;21.70;12.30;;;5.20;99.90;;;;;;4938941;28;20081;-51
2024/03/11 03:42:06;;;;;;;25.65;12.77;;;5.20;99.90;;;;;;4952064;28;20034;-49
2024/03/11 03:44:32;;;;;;;21.02;11.57;;;5.20;99.90;;;;;;4921560;28;20430;-49
2024/03/11 03:46:58;;;;;;;22.33;11.90;;;5.20;99.90;;;;;;4910371;28;20023;-52
2024/03/11 03:49:24;;;;;;;23.85;13.10;;;5.30;99.90;;;;;;4914736;28;20029;-53
2024/03/11 03:51:49;;;;;;;19.90;11.85;;;5.30;99.90;;;;;;4957075;28;20677;-50
2024/03/11 03:54:17;;;;;;;23.80;12.13;;;5.20;99.90;;;;;;4923822;28;20030;-50
2024/03/11 03:56:45;;;;;;;18.90;12.40;;;5.30;99.90;;;;;;4912217;28;20050;-51
2024/03/11 03:59:11;;;;;;;19.50;13.20;;;5.30;99.90;;;;;;4914510;28;20030;-52
2024/03/11 04:01:36;;;;;;;17.02;10.75;;;5.30;99.90;;;;;;4891834;28;22840;-51
2024/03/11 04:04:02;;;;;;;20.83;12.73;;;5.30;99.90;;;;;;4959481;28;20021;-56
2024/03/11 04:06:32;;;;;;;21.02;12.38;;;5.30;99.90;;;;;;4922970;28;20498;-59
2024/03/11 04:08:58;;;;;;;26.92;13.05;;;5.30;99.90;;;;;;4939744;28;20121;-56
2024/03/11 04:11:23;;;;;;;22.65;12.35;;;5.40;99.90;;;;;;4916063;28;20033;-49
2024/03/11 04:13:49;;;;;;;20.75;13.20;;;5.30;99.90;;;;;;4905547;28;20104;-53
2024/03/11 04:16:16;;;;;;;26.48;13.05;;;5.30;99.90;;;;;;4910756;28;20049;-58
2024/03/11 04:18:42;;;;;;;20.63;12.88;;;5.40;99.90;;;;;;4929867;28;20028;-54
2024/03/11 04:21:08;;;;;;;22.98;12.77;;;5.40;99.90;;;;;;4940438;28;20122;-55
2024/03/11 04:23:33;;;;;;;18.73;11.68;;;5.40;99.90;;;;;;4913462;28;20029;-51
2024/03/11 04:26:00;;;;;;;23.00;13.07;;;5.30;99.90;;;;;;4900821;22;20049;-43
2024/03/11 04:28:28;;;;;;;18.88;12.80;;;5.30;99.90;;;;;;4903983;28;20033;-43
2024/03/11 04:30:55;;;;;;;21.77;13.07;;;5.30;99.90;;;;;;4898339;28;20026;-44
2024/03/11 04:33:21;;;;;;;20.85;13.05;;;5.30;99.90;;;;;;4918290;28;20054;-43
2024/03/11 04:35:49;;;;;;;22.80;12.75;;;5.30;99.90;;;;;;4867502;28;20038;-44
2024/03/11 04:38:15;;;;;;;18.88;12.82;;;5.30;99.90;;;;;;4900542;28;20042;-42
2024/03/11 04:40:47;;;;;;;19.42;12.43;;;5.30;99.90;;;;;;4899220;28;22226;-45
2024/03/11 04:43:13;;;;;;;22.20;13.45;;;5.30;99.90;;;;;;4938600;28;20026;-49
2024/03/11 04:45:39;;;;;;;21.20;12.48;;;5.30;99.90;;;;;;4881798;28;20054;-44
2024/03/11 04:48:07;;;;;;;22.90;12.75;;;5.30;99.90;;;;;;4923357;28;20394;-43
2024/03/11 04:50:33;;;;;;;18.05;11.20;;;5.30;99.90;;;;;;4887218;28;20123;-44
2024/03/11 04:53:04;;;;;;;22.83;12.93;;;5.30;99.90;;;;;;4878039;28;20023;-43
2024/03/11 04:55:30;;;;;;;22.00;12.35;;;5.40;99.90;;;;;;4885283;28;21310;-44
2024/03/11 04:57:57;;;;;;;19.77;11.90;;;5.40;99.90;;;;;;4955527;28;20037;-42
2024/03/11 05:00:26;;;;;;;16.67;12.05;;;5.40;99.90;;;;;;4926601;28;20019;-43
2024/03/11 05:02:52;;;;;;;18.52;11.45;;;5.40;99.90;;;;;;4903045;28;20526;-42
2024/03/11 05:05:18;;;;;;;19.10;12.05;;;5.40;99.90;;;;;;4881464;28;20474;-42
2024/03/11 05:07:43;;;;;;;15.10;11.32;;;5.40;99.90;;;;;;4891778;28;20026;-43
2024/03/11 05:10:12;;;;;;;19.33;12.65;;;5.40;99.90;;;;;;4905327;28;20026;-54
2024/03/11 05:12:37;;;;;;;20.48;11.88;;;5.50;99.90;;;;;;4905310;28;20041;-42
2024/03/11 05:15:05;;;;;;;19.15;12.43;;;5.40;99.90;;;;;;4883176;28;22280;-48
2024/03/11 05:17:31;;;;;;;21.42;12.65;;;5.40;99.90;;;;;;4877899;28;20034;-46
2024/03/11 05:19:57;;;;;;;25.45;13.23;;;5.40;99.90;;;;;;4846621;28;20023;-43
2024/03/11 05:22:23;;;;;;;20.80;10.77;;;5.50;99.90;;;;;;4888788;28;20042;-41
2024/03/11 05:24:50;;;;;;;25.83;12.95;;;5.50;99.90;;;;;;4923302;28;21490;-45
2024/03/11 05:27:17;;;;;;;24.77;12.38;;;5.40;99.90;;;;;;4869814;28;20237;-41
2024/03/11 05:29:43;;;;;;;24.08;12.20;;;5.50;99.90;;;;;;4881382;28;20031;-54
2024/03/11 05:32:09;;;;;;;21.45;12.43;;;5.40;99.90;;;;;;4884537;28;20029;-44
2024/03/11 05:34:34;;;;;;;21.77;12.60;;;5.50;99.90;;;;;;4843449;28;21623;-47
2024/03/11 05:37:00;;;;;;;18.65;12.40;;;5.40;99.90;;;;;;4951894;28;20466;-45
2024/03/11 05:39:27;;;;;;;19.35;12.55;;;5.50;99.90;;;;;;4908504;28;20050;-53
2024/03/11 05:41:52;;;;;;;21.35;13.70;;;5.40;99.90;;;;;;4870975;28;20137;-46
2024/03/11 05:44:19;;;;;;;23.75;12.55;;;5.40;99.90;;;;;;4878862;28;20534;-42
2024/03/11 05:46:45;;;;;;;18.95;11.57;;;5.50;99.90;;;;;;4864608;28;20030;-43
2024/03/11 05:49:14;;;;;;;21.63;13.70;;;5.40;99.90;;;;;;4900150;28;20100;-52
2024/03/11 05:51:42;;;;;;;21.77;12.13;;;5.50;99.90;;;;;;4847978;28;20034;-43
2024/03/11 05:54:17;;;;;;;19.92;12.50;;;5.50;99.90;;;;;;4910863;28;20030;-46
2024/03/11 05:56:59;;;;;;;24.35;12.93;;;5.50;99.90;;;;;;4873159;28;20394;-50
2024/03/11 05:59:25;;;;;;;20.55;12.85;;;5.50;99.90;;;;;;4869476;28;20660;-43
2024/03/11 06:01:52;;;;;;;21.60;12.30;;;5.50;99.90;;;;;;4844052;28;20058;-46
2024/03/11 06:04:18;;;;;;;26.00;14.45;;;5.50;99.90;;;;;;4872247;28;20025;-50
2024/03/11 06:06:45;;;;;;;24.02;13.23;;;5.50;99.90;;;;;;4927835;28;20032;-43
2024/03/11 06:09:12;;;;;;;23.17;12.77;;;5.50;99.90;;;;;;4916483;28;20019;-43
2024/03/11 06:11:40;;;;;;;23.20;12.52;;;5.50;99.90;;;;;;4884539;28;20031;-43
2024/03/11 06:14:07;;;;;;;22.33;13.32;;;5.50;99.90;;;;;;4888014;28;20100;-41
2024/03/11 06:16:33;;;;;;;21.42;11.95;;;5.50;99.90;;;;;;4943708;28;20069;-43
2024/03/11 06:18:59;;;;;;;19.75;12.52;;;5.50;99.90;;;;;;4932557;28;20034;-46
2024/03/11 06:21:25;;;;;;;19.77;13.02;;;5.50;99.90;;;;;;4927594;28;20034;-43
2024/03/11 06:23:51;;;;;;;20.25;12.63;;;5.50;99.90;;;;;;4874995;28;20479;-51
2024/03/11 06:26:17;;;;;;;23.15;13.13;;;5.50;99.90;;;;;;4913278;28;20037;-44
2024/03/11 06:28:43;;;;;;;22.40;13.65;;;5.50;99.90;;;;;;4888715;28;20038;-44
2024/03/11 06:31:08;;;;;;;18.92;12.65;;;5.50;99.90;;;;;;4939433;28;20029;-43
2024/03/11 06:33:37;;;;;;;21.17;12.55;;;5.50;99.90;;;;;;4938472;28;20041;-43
2024/03/11 06:36:03;;;;;;;24.52;14.15;;;5.50;99.90;;;;;;4960343;28;20038;-43
2024/03/11 06:38:29;;;;;;;20.55;12.27;;;5.50;99.90;;;;;;4915107;28;22463;-43
2024/03/11 06:40:56;;;;;;;22.58;13.18;;;5.50;99.90;;;;;;4922073;28;20023;-44
2024/03/11 06:43:23;;;;;;;23.13;12.57;;;5.50;99.90;;;;;;4896081;28;20039;-46
2024/03/11 06:45:48;;;;;;;23.27;12.38;;;5.50;99.90;;;;;;4862292;28;21508;-43
2024/03/11 06:48:14;;;;;;;22.95;13.13;;;5.50;99.90;;;;;;4968789;28;20475;-45
2024/03/11 06:50:39;;;;;;;22.90;12.65;;;5.50;99.90;;;;;;4908208;28;20026;-47
2024/03/11 06:53:08;;;;;;;20.38;12.40;;;5.50;99.90;;;;;;4899271;28;20027;-44
2024/03/11 06:55:34;;;;;;;18.50;12.15;;;5.50;99.90;;;;;;4881303;28;20045;-44
2024/03/11 06:58:01;;;;;;;26.15;13.10;;;5.60;99.90;;;;;;4901513;28;20211;-46
2024/03/11 07:00:27;;;;;;;21.95;12.63;;;5.60;99.90;;;;;;4941938;28;20054;-53
2024/03/11 07:02:53;;;;;;;23.70;13.57;;;5.60;99.90;;;;;;4938054;28;20112;-45
2024/03/11 07:05:26;;;;;;;21.27;12.85;;;5.60;99.90;;;;;;4905935;28;20026;-43
2024/03/11 07:07:51;;;;;;;19.05;11.73;;;5.60;99.90;;;;;;4926780;28;20030;-44
2024/03/11 07:10:17;;;;;;;22.25;12.77;;;5.60;99.90;;;;;;4875872;28;20114;-46
2024/03/11 07:12:43;;;;;;;20.25;12.45;;;5.70;99.90;;;;;;4943641;28;20045;-45
2024/03/11 07:15:10;;;;;;;20.40;12.18;;;5.60;99.90;;;;;;4969609;28;20072;-44
2024/03/11 07:17:36;;;;;;;18.20;13.10;;;5.60;99.90;;;;;;4918838;28;20057;-45
2024/03/11 07:20:07;;;;;;;19.33;12.70;;;5.70;99.90;;;;;;4924230;28;20042;-44
2024/03/11 07:22:34;;;;;;;19.02;11.02;;;5.70;99.90;;;;;;4927579;28;20058;-44
2024/03/11 07:25:00;;;;;;;23.75;12.52;;;5.70;99.90;;;;;;4901077;28;21441;-44
2024/03/11 07:27:26;;;;;;;16.45;10.45;;;5.70;99.90;;;;;;4967121;28;20034;-47
2024/03/11 07:29:51;;;;;;;19.58;12.25;;;5.70;99.90;;;;;;4964529;28;20117;-45
2024/03/11 07:32:18;;;;;;;22.20;12.93;;;5.70;99.90;;;;;;4957766;28;20413;-46
2024/03/11 07:34:45;;;;;;;20.08;11.95;;;5.70;99.90;;;;;;4973134;28;20521;-45
2024/03/11 07:37:25;;;;;;;22.20;12.52;;;5.80;99.90;;;;;;4963254;28;20517;-45
2024/03/11 07:39:54;;;;;;;18.70;11.18;;;5.70;99.90;;;;;;4954665;28;20041;-48
2024/03/11 07:42:22;;;;;;;17.98;11.35;;;5.80;99.90;;;;;;4955150;28;20186;-44
2024/03/11 07:44:49;;;;;;;18.30;10.88;;;5.80;99.90;;;;;;4949295;28;20360;-47
2024/03/11 07:47:15;;;;;;;20.55;11.15;;;5.80;99.90;;;;;;4946526;28;20031;-43
2024/03/11 07:49:42;;;;;;;17.20;11.07;;;5.80;99.90;;;;;;4964714;28;20062;-45
2024/03/11 07:52:07;;;;;;;22.63;12.07;;;5.90;99.90;;;;;;4957194;28;20542;-44
2024/03/11 07:54:33;;;;;;;19.02;12.82;;;5.90;99.90;;;;;;4951420;28;20046;-49
2024/03/11 07:56:59;;;;;;;18.23;11.20;;;5.90;99.90;;;;;;4949364;28;20739;-46
2024/03/11 07:59:25;;;;;;;17.98;11.60;;;5.90;99.90;;;;;;4938065;28;20042;-45
2024/03/11 08:01:50;;;;;;;17.50;10.70;;;5.90;99.90;;;;;;4968116;28;20129;-48
2024/03/11 08:04:16;;;;;;;18.38;11.88;;;5.90;99.90;;;;;;4948298;28;20125;-46
2024/03/11 08:06:42;;;;;;;20.92;11.98;;;6.00;99.90;;;;;;4934355;28;20049;-54
2024/03/11 08:09:09;;;;;;;20.13;11.60;;;6.00;99.90;;;;;;4946556;28;20034;-45
2024/03/11 08:11:39;;;;;;;20.33;11.60;;;6.10;99.90;;;;;;4932583;28;20545;-45
2024/03/11 08:14:05;;;;;;;17.52;11.43;;;6.10;99.90;;;;;;4954391;28;20193;-45
2024/03/11 08:16:31;;;;;;;15.68;11.35;;;6.10;99.90;;;;;;4941631;28;20117;-44
2024/03/11 08:18:57;;;;;;;21.45;11.93;;;6.10;99.90;;;;;;4959321;28;20080;-47
2024/03/11 08:21:23;;;;;;;17.20;11.35;;;6.20;99.90;;;;;;4942513;28;20033;-44
2024/03/11 08:23:48;;;;;;;17.08;11.45;;;6.20;99.90;;;;;;4926379;28;20026;-44
2024/03/11 08:26:17;;;;;;;14.82;11.32;;;6.20;99.90;;;;;;4936742;28;20042;-45
2024/03/11 08:28:43;;;;;;;17.60;10.93;;;6.20;99.90;;;;;;4959211;28;20061;-43
2024/03/11 08:31:09;;;;;;;18.92;11.20;;;6.30;99.90;;;;;;4938639;28;20117;-45
2024/03/11 08:33:38;;;;;;;17.77;11.02;;;6.30;99.90;;;;;;4944677;28;20109;-46
2024/03/11 08:36:04;;;;;;;21.98;11.48;;;6.30;99.90;;;;;;4929958;28;20066;-45
2024/03/11 08:38:31;;;;;;;15.52;11.27;;;6.30;99.90;;;;;;4921716;28;21052;-45
2024/03/11 08:40:57;;;;;;;18.27;12.23;;;6.40;99.90;;;;;;4947276;28;20026;-47
2024/03/11 08:43:22;;;;;;;23.63;11.38;;;6.40;99.90;;;;;;4938299;28;20565;-45
2024/03/11 08:45:48;;;;;;;17.38;11.40;;;6.40;99.90;;;;;;4932374;28;20061;-41
2024/03/11 08:48:14;;;;;;;18.60;11.27;;;6.40;99.90;;;;;;4938181;28;20062;-40
2024/03/11 08:50:39;;;;;;;18.92;11.45;;;6.40;99.90;;;;;;4934365;28;20027;-42
2024/03/11 08:53:08;;;;;;;19.60;11.50;;;6.40;99.90;;;;;;4953982;28;20030;-45
2024/03/11 08:55:34;;;;;;;16.30;10.48;;;6.50;99.90;;;;;;4937237;28;20084;-44
2024/03/11 08:58:01;;;;;;;17.38;10.77;;;6.50;99.90;;;;;;4950869;28;21440;-49
2024/03/11 09:00:30;;;;;;;17.08;10.95;;;6.50;99.90;;;;;;4937829;28;20109;-43
2024/03/11 09:02:56;;;;;;;16.05;9.65;;;6.60;99.90;;;;;;4927107;28;20117;-46
2024/03/11 09:05:22;;;;;;;19.10;11.20;;;6.60;99.90;;;;;;4911365;28;20101;-47
2024/03/11 09:07:50;;;;;;;18.73;11.77;;;6.70;99.90;;;;;;4940544;28;21801;-44
2024/03/11 09:10:17;;;;;;;18.63;10.88;;;6.60;99.90;;;;;;4931975;28;20165;-45
2024/03/11 09:12:45;;;;;;;16.88;9.98;;;6.70;99.90;;;;;;4918380;28;20172;-53
2024/03/11 09:15:18;;;;;;;17.50;11.90;;;6.70;99.90;;;;;;4915001;28;20121;-44
2024/03/11 09:17:49;;;;;;;16.17;11.35;;;6.70;99.90;;;;;;4903686;28;20110;-42
2024/03/11 09:20:16;;;;;;;13.15;10.23;;;6.70;99.90;;;;;;4923571;28;20129;-44
2024/03/11 09:22:48;;;;;;;17.13;10.68;;;6.70;99.90;;;;;;4938713;28;20035;-43
2024/03/11 09:25:24;;;;;;;13.93;11.07;;;6.70;99.90;;;;;;4939747;28;20109;-45
2024/03/11 09:28:08;;;;;;;17.30;10.13;;;6.70;99.90;;;;;;4905006;28;20039;-46
2024/03/11 09:30:37;;;;;;;19.05;11.35;;;6.80;99.90;;;;;;4923009;28;20030;-45
2024/03/11 09:33:03;;;;;;;16.45;10.90;;;6.70;99.90;;;;;;4917722;28;20117;-43
2024/03/11 09:35:29;;;;;;;18.58;11.63;;;6.70;99.90;;;;;;4917161;28;21287;-42
2024/03/11 09:37:56;;;;;;;15.90;10.27;;;6.80;99.90;;;;;;4937764;28;20034;-45
2024/03/11 09:40:23;;;;;;;18.42;11.25;;;6.80;99.90;;;;;;4922468;28;20984;-44
2024/03/11 09:42:58;;;;;;;20.10;10.05;;;6.80;99.90;;;;;;4898061;28;20490;-45
2024/03/11 09:45:28;;;;;;;18.17;10.88;;;6.80;99.90;;;;;;4921898;28;20038;-45
2024/03/11 09:47:55;;;;;;;18.80;10.80;;;6.80;99.90;;;;;;4908917;28;20022;-43
2024/03/11 09:50:32;;;;;;;19.10;11.45;;;6.90;99.90;;;;;;4897733;28;20057;-47
2024/03/11 09:53:06;;;;;;;20.75;11.93;;;6.90;99.90;;;;;;4948580;28;20126;-45
2024/03/11 09:55:33;;;;;;;17.27;10.52;;;7.00;99.90;;;;;;4887145;28;20509;-47
2024/03/11 09:58:12;;;;;;;16.17;10.38;;;7.00;99.90;;;;;;4936970;28;20491;-45
2024/03/11 10:00:48;;;;;;;18.77;10.88;;;7.10;99.90;;;;;;4914027;28;20027;-42
2024/03/11 10:03:16;;;;;;;15.55;10.68;;;7.10;99.90;;;;;;4914172;28;20038;-45
2024/03/11 10:05:44;;;;;;;16.38;11.30;;;7.10;99.90;;;;;;4910275;28;20022;-46
2024/03/11 10:08:11;;;;;;;18.02;10.95;;;7.20;99.90;;;;;;4928788;28;20113;-50
2024/03/11 10:10:39;;;;;;;18.05;11.88;;;7.20;99.90;;;;;;4895170;28;20038;-44
2024/03/11 10:13:05;;;;;;;15.00;10.60;;;7.20;99.90;;;;;;4915495;28;21990;-46
2024/03/11 10:15:34;;;;;;;16.35;10.40;;;7.10;99.90;;;;;;4907101;28;20487;-50
2024/03/11 10:18:09;;;;;;;18.75;11.30;;;7.10;99.90;;;;;;4902951;28;20573;-41
2024/03/11 10:20:35;;;;;;;21.92;11.45;;;7.10;99.90;;;;;;4906082;28;21586;-45
2024/03/11 10:23:06;;;;;;;19.95;11.40;;;7.10;99.90;;;;;;4920275;28;20057;-47
2024/03/11 10:25:34;;;;;;;19.60;10.75;;;7.00;99.90;;;;;;4892017;28;20114;-54
2024/03/11 10:28:03;;;;;;;16.92;11.82;;;7.10;99.90;;;;;;4963553;23;20041;-52
2024/03/11 10:30:31;;;;;;;18.95;11.18;;;7.20;99.90;;;;;;4934867;28;20614;-53
2024/03/11 10:33:01;;;;;;;14.93;10.70;;;7.10;99.90;;;;;;4926086;28;20030;-54
2024/03/11 10:35:33;;;;;;;20.58;10.90;;;7.10;99.90;;;;;;4919251;28;20080;-52
2024/03/11 10:38:12;;;;;;;15.27;10.23;;;7.10;99.90;;;;;;4951623;28;20022;-52
2024/03/11 10:40:38;;;;;;;20.42;10.57;;;7.20;99.90;;;;;;4936590;28;20624;-50
2024/03/11 10:43:25;;;;;;;15.52;10.65;;;7.20;99.90;;;;;;4959389;28;20036;-54
2024/03/11 10:45:51;;;;;;;;;;;7.30;99.90;;;;;;4910106;28;20030;-54
2024/03/11 10:48:17;;;;;;;15.30;9.77;;;7.30;99.90;;;;;;4923693;28;20402;-50
2024/03/11 10:50:44;;;;;;;17.92;11.48;;;7.30;99.90;;;;;;4907407;28;20022;-53
2024/03/11 10:53:21;;;;;;;17.55;10.68;;;7.30;99.90;;;;;;4951570;28;20049;-60
2024/03/11 10:55:55;;;;;;;17.05;11.50;;;7.30;99.90;;;;;;4968014;28;21765;-52
2024/03/11 10:58:26;;;;;;;18.45;11.23;;;7.30;99.90;;;;;;4939977;28;20037;-52
2024/03/11 11:00:55;;;;;;;19.60;11.93;;;7.30;99.90;;;;;;4921042;28;20036;-56
2024/03/11 11:03:23;;;;;;;17.77;12.05;;;7.40;99.90;;;;;;4946572;28;20057;-51
2024/03/11 11:05:52;;;;;;;17.95;12.48;;;7.40;99.90;;;;;;4904337;28;20026;-51
2024/03/11 11:08:29;;;;;;;18.63;11.57;;;7.40;99.90;;;;;;4933615;28;20030;-61
2024/03/11 11:11:00;;;;;;;17.73;11.45;;;7.40;99.90;;;;;;4955742;28;20089;-51
2024/03/11 11:13:29;;;;;;;20.00;11.63;;;7.40;99.90;;;;;;4942803;28;20413;-59
2024/03/11 11:15:57;;;;;;;17.90;12.00;;;7.40;99.90;;;;;;4936442;28;20040;-51
2024/03/11 11:18:26;;;;;;;16.42;11.77;;;7.40;99.90;;;;;;4929561;28;20253;-52
2024/03/11 11:20:52;;;;;;;19.48;12.20;;;7.40;99.90;;;;;;4906943;28;20530;-51
2024/03/11 11:23:29;;;;;;;19.88;11.43;;;7.40;99.90;;;;;;4963093;28;20099;-53
2024/03/11 11:25:56;;;;;;;20.13;11.77;;;7.50;99.90;;;;;;4988463;28;20030;-52
2024/03/11 11:28:28;;;;;;;18.92;12.40;;;7.50;99.90;;;;;;4977600;28;20037;-52
2024/03/11 11:31:14;;;;;;;22.25;12.35;;;7.60;99.90;;;;;;4967107;28;20041;-53
2024/03/11 11:33:53;;;;;;;20.20;12.40;;;7.60;99.90;;;;;;4978830;28;20550;-52
2024/03/11 11:36:36;;;;;;;16.55;11.05;;;7.50;99.90;;;;;;4975939;28;20112;-50
2024/03/11 11:39:13;;;;;;;20.38;12.10;;;7.50;99.90;;;;;;4959984;28;20049;-51
2024/03/11 11:41:42;;;;;;;19.42;12.57;;;7.50;99.90;;;;;;4960884;28;20069;-56
2024/03/11 11:44:08;;;;;;;18.35;12.90;;;7.50;99.90;;;;;;4990147;28;20034;-51
2024/03/11 11:46:47;;;;;;;20.98;12.23;;;7.60;99.90;;;;;;4973979;28;20026;-59
2024/03/11 11:49:20;;;;;;;23.50;12.32;;;7.60;99.90;;;;;;4979632;28;20453;-53
2024/03/11 11:51:47;;;;;;;19.95;13.60;;;7.60;99.90;;;;;;4968381;28;20108;-49
2024/03/11 11:54:26;;;;;;;22.00;13.05;;;7.70;99.90;;;;;;4975882;28;20433;-50
2024/03/11 11:57:05;;;;;;;20.50;12.27;;;7.70;99.90;;;;;;4970608;28;20053;-49
2024/03/11 11:59:32;;;;;;;18.75;11.50;;;7.70;99.90;;;;;;4958366;28;21733;-51
2024/03/11 12:02:00;;;;;;;21.20;12.82;;;7.80;99.90;;;;;;4994101;28;20037;-51
2024/03/11 12:04:28;;;;;;;19.50;13.20;;;7.80;99.90;;;;;;4976778;28;20030;-51
2024/03/11 12:06:54;;;;;;;23.13;13.70;;;7.80;99.90;;;;;;4993780;28;20037;-51
2024/03/11 12:09:20;;;;;;;19.25;13.55;;;7.90;99.90;;;;;;4978722;28;20032;-51
2024/03/11 12:11:48;;;;;;;20.23;12.68;;;8.00;99.90;;;;;;4957726;28;20037;-50
2024/03/11 12:14:15;;;;;;;20.95;12.98;;;7.90;99.90;;;;;;4973929;28;20045;-58
2024/03/11 12:16:42;;;;;;;19.40;13.13;;;7.90;99.90;;;;;;4972429;28;21441;-51
2024/03/11 12:19:11;;;;;;;19.35;13.45;;;7.80;99.90;;;;;;4973052;28;20037;-51
2024/03/11 12:21:42;;;;;;;20.38;12.93;;;7.80;99.90;;;;;;4975192;28;20018;-49
2024/03/11 12:24:17;;;;;;;19.45;12.82;;;7.80;99.90;;;;;;4977181;28;20021;-49
2024/03/11 12:26:45;;;;;;;19.42;13.55;;;7.70;99.90;;;;;;4971284;28;20023;-51
2024/03/11 12:29:21;;;;;;;22.33;13.73;;;7.70;99.90;;;;;;4987842;28;20724;-51
2024/03/11 12:31:56;;;;;;;29.17;14.15;;;7.60;99.90;;;;;;4972567;28;20072;-50
2024/03/11 12:34:24;;;;;;;18.30;12.43;;;7.60;99.90;;;;;;4988205;28;20065;-49
2024/03/11 12:36:51;;;;;;;21.25;13.25;;;7.60;99.90;;;;;;4958774;28;20034;-49
2024/03/11 12:39:27;;;;;;;19.20;13.10;;;7.60;99.90;;;;;;4970455;28;20044;-49
2024/03/11 12:41:55;;;;;;;22.25;12.43;;;7.60;99.90;;;;;;4963797;28;20060;-51